Acarobasi, Turkey

3:39 AM +03 on April 28, 2017 (GMT +0300)
Oguzeli | | Change Station

Elev 2805 ft 37.08 °N, 37.37 °E | Updated 19 minutes ago

Mostly Cloudy
Mostly Cloudy
66 °F
Feels Like 66 °F
N
9
Wind Variable Wind from West

Today
High -- | Low -- °F
--% Chance of Precip.
Yesterday
High -- | Low -- °F
Precip. -- in
Pressure 30.01 in
Visibility 6.2 miles
Clouds Few 4200 ft
Mostly Cloudy 10000 ft
Dew Point 39 °F
Humidity 37%
Rainfall 0.00 in
Snow Depth Not available.
5:40 AM 7:18 PM
Waxing Crescent, 3% visible
METAR LTAJ 280020Z 27008KT 9999 FEW042 BKN100 19/04 Q1016 NOSIG RMK RWY10 28007KT
Pressure 30.01 in
Visibility 6.2 miles
Clouds Few 4200 ft
Mostly Cloudy 10000 ft
Dew Point 39 °F
Humidity 37%
Rainfall 0.00 in
Snow Depth Not available.
5:40 AM 7:18 PM
Waxing Crescent, 3% visible
METAR LTAJ 280020Z 27008KT 9999 FEW042 BKN100 19/04 Q1016 NOSIG RMK RWY10 28007KT

Get Severe Weather Alerts

Thanks for signing up!

Be on the lookout for a verification email in your inbox.

You'll start receiving the daily forecast at 8 AM.

×

10-Day Weather Forecast

×

Almanac

Astronomy

Apr. 28, 2017 Rise Set
Actual Time
Civil Twilight
Nautical Twilight
Astronomical Twilight
Moon
Length of Visible Light
Length of Day
Tomorrow will be .
, % of the Moon is Illuminated

Today's Extremes

Country Highs Country Lows

Community

WunderPhotos

WunderBlog® & News

Nearby

Air Quality

  Air Quality AQ Index Pollutant
Not available.

Snow Depth

Station Depth Elevation

Earthquake Activity

City Distance Mag. Time & Date
Minimum magnitude displayed is 2.5.

Coastal Water Temperatures

Place Temperature

Stations

Nearby Weather Stations

Station Location Temp. Windchill Dew Point Humidity Wind Precip. Elev Updated Type